sensor_id;sensor_type;location;lat;lon;timestamp;pressure;altitude;pressure_sealevel;temperature;humidity
44531;BME280;30240;47.418;0.700;2022-08-19T00:01:08;100521.58813476562;;;19.12;78.4
44531;BME280;30240;47.418;0.700;2022-08-19T00:03:34;100525.0;;;19.19;78.17
44531;BME280;30240;47.418;0.700;2022-08-19T00:05:58;100525.0;;;19.19;78.17
44531;BME280;30240;47.418;0.700;2022-08-19T00:08:23;100527.5634765625;;;19.14;78.39
44531;BME280;30240;47.418;0.700;2022-08-19T00:10:49;100527.93579101562;;;19.14;78.44
44531;BME280;30240;47.418;0.700;2022-08-19T00:13:13;100531.201171875;;;19.14;78.14
44531;BME280;30240;47.418;0.700;2022-08-19T00:15:38;100531.31103515625;;;19.08;78.24
44531;BME280;30240;47.418;0.700;2022-08-19T00:18:04;100531.31103515625;;;19.08;78.24
44531;BME280;30240;47.418;0.700;2022-08-19T00:20:29;100531.55517578125;;;19.07;78.25
44531;BME280;30240;47.418;0.700;2022-08-19T00:22:54;100531.31103515625;;;18.97;78.52
44531;BME280;30240;47.418;0.700;2022-08-19T00:25:19;100531.26831054688;;;19.08;78.11
44531;BME280;30240;47.418;0.700;2022-08-19T00:27:44;100531.4208984375;;;19.11;77.96
44531;BME280;30240;47.418;0.700;2022-08-19T00:30:09;100531.4208984375;;;19.11;77.96
44531;BME280;30240;47.418;0.700;2022-08-19T00:32:34;100528.87573242188;;;19.02;78.36
44531;BME280;30240;47.418;0.700;2022-08-19T00:34:58;100531.73217773438;;;19.04;78.12
44531;BME280;30240;47.418;0.700;2022-08-19T00:37:24;100532.2021484375;;;18.88;78.82
44531;BME280;30240;47.418;0.700;2022-08-19T00:39:49;100525.62255859375;;;18.84;78.8
44531;BME280;30240;47.418;0.700;2022-08-19T00:42:14;100525.62255859375;;;18.84;78.8
44531;BME280;30240;47.418;0.700;2022-08-19T00:44:39;100525.1708984375;;;18.74;79.26
44531;BME280;30240;47.418;0.700;2022-08-19T00:47:04;100522.7783203125;;;18.73;79.22
44531;BME280;30240;47.418;0.700;2022-08-19T00:49:30;100525.1953125;;;18.81;78.99
44531;BME280;30240;47.418;0.700;2022-08-19T00:51:57;100532.2021484375;;;18.77;78.98
44531;BME280;30240;47.418;0.700;2022-08-19T00:54:19;100532.2021484375;;;18.77;78.98
44531;BME280;30240;47.418;0.700;2022-08-19T00:56:44;100532.97729492188;;;18.69;79.2
44531;BME280;30240;47.418;0.700;2022-08-19T00:59:09;100529.638671875;;;18.77;79.06
44531;BME280;30240;47.418;0.700;2022-08-19T01:01:34;100532.2021484375;;;18.66;79.31
44531;BME280;30240;47.418;0.700;2022-08-19T01:03:59;100531.53686523438;;;18.66;79.64
44531;BME280;30240;47.418;0.700;2022-08-19T01:06:24;100531.53686523438;;;18.66;79.64
44531;BME280;30240;47.418;0.700;2022-08-19T01:08:48;100533.36181640625;;;18.62;79.37
44531;BME280;30240;47.418;0.700;2022-08-19T01:11:14;100537.81127929688;;;18.73;79.11
44531;BME280;30240;47.418;0.700;2022-08-19T01:13:39;100536.82250976562;;;18.78;78.93
44531;BME280;30240;47.418;0.700;2022-08-19T01:16:05;100530.2001953125;;;18.83;78.72
44531;BME280;30240;47.418;0.700;2022-08-19T01:18:30;100530.2001953125;;;18.83;78.72
44531;BME280;30240;47.418;0.700;2022-08-19T01:20:56;100527.32543945312;;;18.78;78.44
44531;BME280;30240;47.418;0.700;2022-08-19T01:23:19;100521.45385742188;;;18.81;78.4
44531;BME280;30240;47.418;0.700;2022-08-19T01:25:46;100516.81518554688;;;18.86;78.17
44531;BME280;30240;47.418;0.700;2022-08-19T01:28:14;100522.73559570312;;;18.69;78.52
44531;BME280;30240;47.418;0.700;2022-08-19T01:30:34;100520.90454101562;;;18.8;78.07
44531;BME280;30240;47.418;0.700;2022-08-19T01:32:59;100520.90454101562;;;18.8;78.07
44531;BME280;30240;47.418;0.700;2022-08-19T01:35:25;100523.29711914062;;;18.78;78.17
44531;BME280;30240;47.418;0.700;2022-08-19T01:37:51;100522.03369140625;;;18.7;78.21
44531;BME280;30240;47.418;0.700;2022-08-19T01:40:14;100527.87475585938;;;18.76;78.07
44531;BME280;30240;47.418;0.700;2022-08-19T01:42:38;100529.9072265625;;;18.86;77.63
44531;BME280;30240;47.418;0.700;2022-08-19T01:45:04;100529.9072265625;;;18.86;77.63
44531;BME280;30240;47.418;0.700;2022-08-19T01:47:29;100527.2705078125;;;18.84;77.41
44531;BME280;30240;47.418;0.700;2022-08-19T01:49:53;100525.9033203125;;;18.88;76.76
44531;BME280;30240;47.418;0.700;2022-08-19T01:52:19;100522.74780273438;;;18.95;76.73
44531;BME280;30240;47.418;0.700;2022-08-19T01:54:44;100528.82690429688;;;18.97;76.72
44531;BME280;30240;47.418;0.700;2022-08-19T01:57:12;100528.82690429688;;;18.97;76.72
44531;BME280;30240;47.418;0.700;2022-08-19T01:59:34;100528.2958984375;;;18.91;76.84
44531;BME280;30240;47.418;0.700;2022-08-19T02:01:59;100526.708984375;;;18.93;76.38
44531;BME280;30240;47.418;0.700;2022-08-19T02:04:24;100536.279296875;;;19.08;75.85
44531;BME280;30240;47.418;0.700;2022-08-19T02:06:49;100542.10205078125;;;19.18;76.67
44531;BME280;30240;47.418;0.700;2022-08-19T02:09:14;100542.10205078125;;;19.18;76.67
44531;BME280;30240;47.418;0.700;2022-08-19T02:11:39;100541.6015625;;;19.29;75.69
44531;BME280;30240;47.418;0.700;2022-08-19T02:14:06;100541.09497070312;;;19.07;76.17
44531;BME280;30240;47.418;0.700;2022-08-19T02:16:29;100548.6572265625;;;19.14;76.16
44531;BME280;30240;47.418;0.700;2022-08-19T02:18:53;100546.39892578125;;;19.22;75.95
44531;BME280;30240;47.418;0.700;2022-08-19T02:21:20;100546.39892578125;;;19.22;75.95
44531;BME280;30240;47.418;0.700;2022-08-19T02:23:44;100543.701171875;;;19.02;76.57
44531;BME280;30240;47.418;0.700;2022-08-19T02:26:09;100540.625;;;18.66;78.2
44531;BME280;30240;47.418;0.700;2022-08-19T02:28:33;100548.88916015625;;;18.73;78.05
44531;BME280;30240;47.418;0.700;2022-08-19T02:30:59;100551.08642578125;;;18.73;78.23
44531;BME280;30240;47.418;0.700;2022-08-19T02:33:23;100551.08642578125;;;18.73;78.23
44531;BME280;30240;47.418;0.700;2022-08-19T02:35:48;100549.49951171875;;;18.73;78.44
44531;BME280;30240;47.418;0.700;2022-08-19T02:38:14;100549.57275390625;;;18.7;78.67
44531;BME280;30240;47.418;0.700;2022-08-19T02:40:38;100547.71728515625;;;18.56;79.94
44531;BME280;30240;47.418;0.700;2022-08-19T02:43:05;100546.56372070312;;;18.53;80.89
44531;BME280;30240;47.418;0.700;2022-08-19T02:45:31;100546.56372070312;;;18.53;80.89
44531;BME280;30240;47.418;0.700;2022-08-19T02:47:53;100549.560546875;;;18.53;80.57
44531;BME280;30240;47.418;0.700;2022-08-19T02:50:19;100547.57690429688;;;18.34;81.41
44531;BME280;30240;47.418;0.700;2022-08-19T02:52:44;100548.095703125;;;18.41;81.54
44531;BME280;30240;47.418;0.700;2022-08-19T02:55:09;100544.3603515625;;;18.41;81.45
44531;BME280;30240;47.418;0.700;2022-08-19T02:57:33;100544.3603515625;;;18.41;81.45
44531;BME280;30240;47.418;0.700;2022-08-19T02:59:59;100545.1171875;;;18.44;81.56
44531;BME280;30240;47.418;0.700;2022-08-19T03:02:24;100546.42944335938;;;18.51;81.19
44531;BME280;30240;47.418;0.700;2022-08-19T03:04:49;100547.93701171875;;;18.52;80.61
44531;BME280;30240;47.418;0.700;2022-08-19T03:07:15;100550.67138671875;;;18.63;80.76
44531;BME280;30240;47.418;0.700;2022-08-19T03:09:39;100553.14331054688;;;18.48;80.78
44531;BME280;30240;47.418;0.700;2022-08-19T03:12:04;100553.14331054688;;;18.48;80.78
44531;BME280;30240;47.418;0.700;2022-08-19T03:14:30;100556.10961914062;;;18.45;81.12
44531;BME280;30240;47.418;0.700;2022-08-19T03:16:54;100557.6904296875;;;18.48;80.58
44531;BME280;30240;47.418;0.700;2022-08-19T03:19:19;100560.498046875;;;18.25;81.43
44531;BME280;30240;47.418;0.700;2022-08-19T03:21:45;100569.42138671875;;;18.32;81.09
44531;BME280;30240;47.418;0.700;2022-08-19T03:24:08;100569.42138671875;;;18.32;81.09
44531;BME280;30240;47.418;0.700;2022-08-19T03:26:37;100566.90673828125;;;18.41;80.91
44531;BME280;30240;47.418;0.700;2022-08-19T03:29:01;100565.26489257812;;;18.42;81.0
44531;BME280;30240;47.418;0.700;2022-08-19T03:31:25;100568.06030273438;;;18.36;80.93
44531;BME280;30240;47.418;0.700;2022-08-19T03:33:49;100566.90673828125;;;18.34;81.12
44531;BME280;30240;47.418;0.700;2022-08-19T03:36:16;100566.90673828125;;;18.34;81.12
44531;BME280;30240;47.418;0.700;2022-08-19T03:38:40;100573.63891601562;;;18.31;81.25
44531;BME280;30240;47.418;0.700;2022-08-19T03:41:05;100570.13549804688;;;18.2;81.66
44531;BME280;30240;47.418;0.700;2022-08-19T03:43:29;100569.94018554688;;;18.29;81.34
44531;BME280;30240;47.418;0.700;2022-08-19T03:45:59;100577.8564453125;;;18.32;81.32
44531;BME280;30240;47.418;0.700;2022-08-19T03:48:18;100577.8564453125;;;18.32;81.32
44531;BME280;30240;47.418;0.700;2022-08-19T03:50:44;100573.095703125;;;18.34;81.15
44531;BME280;30240;47.418;0.700;2022-08-19T03:53:09;100581.23168945312;;;18.32;81.32
44531;BME280;30240;47.418;0.700;2022-08-19T03:55:39;100573.0224609375;;;18.41;81.14
44531;BME280;30240;47.418;0.700;2022-08-19T03:57:59;100563.5498046875;;;18.38;81.04
44531;BME280;30240;47.418;0.700;2022-08-19T04:00:24;100563.5498046875;;;18.38;81.04
44531;BME280;30240;47.418;0.700;2022-08-19T04:02:49;100569.92797851562;;;18.44;80.7
44531;BME280;30240;47.418;0.700;2022-08-19T04:05:14;100572.71728515625;;;18.46;80.62
44531;BME280;30240;47.418;0.700;2022-08-19T04:07:39;100571.7041015625;;;18.55;80.36
44531;BME280;30240;47.418;0.700;2022-08-19T04:10:04;100570.84350585938;;;18.6;80.26
44531;BME280;30240;47.418;0.700;2022-08-19T04:12:29;100570.84350585938;;;18.6;80.26
44531;BME280;30240;47.418;0.700;2022-08-19T04:14:53;100571.18530273438;;;18.56;80.57
44531;BME280;30240;47.418;0.700;2022-08-19T04:17:18;100569.78149414062;;;18.49;80.8
44531;BME280;30240;47.418;0.700;2022-08-19T04:19:43;100574.25537109375;;;18.48;81.02
44531;BME280;30240;47.418;0.700;2022-08-19T04:22:09;100569.78759765625;;;18.38;81.32
44531;BME280;30240;47.418;0.700;2022-08-19T04:24:34;100569.78759765625;;;18.38;81.32
44531;BME280;30240;47.418;0.700;2022-08-19T04:26:59;100571.2158203125;;;18.48;81.07
44531;BME280;30240;47.418;0.700;2022-08-19T04:29:24;100578.53393554688;;;18.44;81.27
44531;BME280;30240;47.418;0.700;2022-08-19T04:31:49;100577.9052734375;;;18.29;82.06
44531;BME280;30240;47.418;0.700;2022-08-19T04:34:16;100578.31420898438;;;18.34;82.22
44531;BME280;30240;47.418;0.700;2022-08-19T04:36:41;100579.833984375;;;18.24;82.76
44531;BME280;30240;47.418;0.700;2022-08-19T04:39:06;100579.833984375;;;18.24;82.76
44531;BME280;30240;47.418;0.700;2022-08-19T04:41:28;100577.83813476562;;;18.32;82.74
44531;BME280;30240;47.418;0.700;2022-08-19T04:43:53;100581.31103515625;;;18.29;82.93
44531;BME280;30240;47.418;0.700;2022-08-19T04:46:19;100576.72119140625;;;18.14;83.76
44531;BME280;30240;47.418;0.700;2022-08-19T04:48:43;100580.65795898438;;;18.17;83.58
44531;BME280;30240;47.418;0.700;2022-08-19T04:51:10;100580.65795898438;;;18.17;83.58
44531;BME280;30240;47.418;0.700;2022-08-19T04:53:35;100584.9853515625;;;18.2;83.84
44531;BME280;30240;47.418;0.700;2022-08-19T04:55:59;100581.92138671875;;;18.25;83.84
44531;BME280;30240;47.418;0.700;2022-08-19T04:58:25;100589.599609375;;;18.25;83.91
44531;BME280;30240;47.418;0.700;2022-08-19T05:00:49;100583.39233398438;;;18.25;84.08
44531;BME280;30240;47.418;0.700;2022-08-19T05:03:14;100583.39233398438;;;18.25;84.08
44531;BME280;30240;47.418;0.700;2022-08-19T05:05:40;100590.54565429688;;;18.11;84.83
44531;BME280;30240;47.418;0.700;2022-08-19T05:08:03;100587.90893554688;;;18.08;84.99
44531;BME280;30240;47.418;0.700;2022-08-19T05:10:28;100594.23217773438;;;18.07;85.04
44531;BME280;30240;47.418;0.700;2022-08-19T05:12:54;100600.6591796875;;;18.0;85.54
44531;BME280;30240;47.418;0.700;2022-08-19T05:15:19;100600.6591796875;;;18.0;85.54
44531;BME280;30240;47.418;0.700;2022-08-19T05:17:43;100603.173828125;;;17.97;85.72
44531;BME280;30240;47.418;0.700;2022-08-19T05:20:09;100601.123046875;;;18.07;85.4
44531;BME280;30240;47.418;0.700;2022-08-19T05:22:33;100600.11596679688;;;18.21;84.83
44531;BME280;30240;47.418;0.700;2022-08-19T05:24:58;100609.2041015625;;;18.25;85.04
44531;BME280;30240;47.418;0.700;2022-08-19T05:27:24;100609.2041015625;;;18.25;85.04
44531;BME280;30240;47.418;0.700;2022-08-19T05:29:48;100611.71875;;;18.27;85.09
44531;BME280;30240;47.418;0.700;2022-08-19T05:32:13;100618.10913085938;;;18.11;85.7
44531;BME280;30240;47.418;0.700;2022-08-19T05:34:38;100624.71923828125;;;17.96;86.36
44531;BME280;30240;47.418;0.700;2022-08-19T05:37:04;100628.2470703125;;;18.05;86.15
44531;BME280;30240;47.418;0.700;2022-08-19T05:39:31;100628.2470703125;;;18.05;86.15
44531;BME280;30240;47.418;0.700;2022-08-19T05:41:56;100626.25122070312;;;18.14;85.8
44531;BME280;30240;47.418;0.700;2022-08-19T05:44:19;100627.70385742188;;;18.04;86.32
44531;BME280;30240;47.418;0.700;2022-08-19T05:46:44;100628.6376953125;;;18.2;85.7
44531;BME280;30240;47.418;0.700;2022-08-19T05:49:09;100623.49853515625;;;18.25;85.71
44531;BME280;30240;47.418;0.700;2022-08-19T05:51:36;100623.49853515625;;;18.25;85.71
44531;BME280;30240;47.418;0.700;2022-08-19T05:53:58;100623.0712890625;;;18.36;85.19
44531;BME280;30240;47.418;0.700;2022-08-19T05:56:24;100620.1416015625;;;18.21;85.66
44531;BME280;30240;47.418;0.700;2022-08-19T05:58:48;100618.21899414062;;;18.25;85.66
44531;BME280;30240;47.418;0.700;2022-08-19T06:01:15;100618.43872070312;;;18.12;85.83
44531;BME280;30240;47.418;0.700;2022-08-19T06:03:39;100618.43872070312;;;18.12;85.83
44531;BME280;30240;47.418;0.700;2022-08-19T06:06:04;100623.86474609375;;;18.34;85.17
44531;BME280;30240;47.418;0.700;2022-08-19T06:08:29;100629.09545898438;;;18.46;84.76
44531;BME280;30240;47.418;0.700;2022-08-19T06:10:54;100631.71997070312;;;18.48;84.84
44531;BME280;30240;47.418;0.700;2022-08-19T06:13:18;100625.54931640625;;;18.39;85.05
44531;BME280;30240;47.418;0.700;2022-08-19T06:15:43;100630.2490234375;;;18.31;85.29
44531;BME280;30240;47.418;0.700;2022-08-19T06:18:08;100630.2490234375;;;18.31;85.29
44531;BME280;30240;47.418;0.700;2022-08-19T06:20:33;100620.8251953125;;;18.21;85.69
44531;BME280;30240;47.418;0.700;2022-08-19T06:22:58;100621.533203125;;;18.22;85.56
44531;BME280;30240;47.418;0.700;2022-08-19T06:25:23;100621.46606445312;;;18.38;85.19
44531;BME280;30240;47.418;0.700;2022-08-19T06:27:49;100625.14038085938;;;18.38;85.15
44531;BME280;30240;47.418;0.700;2022-08-19T06:30:14;100625.14038085938;;;18.38;85.15
44531;BME280;30240;47.418;0.700;2022-08-19T06:32:38;100634.07592773438;;;18.1;85.87
44531;BME280;30240;47.418;0.700;2022-08-19T06:35:04;100628.79638671875;;;18.22;86.05
44531;BME280;30240;47.418;0.700;2022-08-19T06:37:29;100634.68627929688;;;18.28;85.62
44531;BME280;30240;47.418;0.700;2022-08-19T06:39:53;100635.12573242188;;;18.25;85.51
44531;BME280;30240;47.418;0.700;2022-08-19T06:42:18;100635.12573242188;;;18.25;85.51
44531;BME280;30240;47.418;0.700;2022-08-19T06:44:46;100630.16357421875;;;19.29;82.18
44531;BME280;30240;47.418;0.700;2022-08-19T06:47:11;100638.9404296875;;;19.95;79.44
44531;BME280;30240;47.418;0.700;2022-08-19T06:49:34;100627.64282226562;;;20.23;78.46
44531;BME280;30240;47.418;0.700;2022-08-19T06:51:59;100629.87670898438;;;20.11;78.85
44531;BME280;30240;47.418;0.700;2022-08-19T06:54:24;100629.87670898438;;;20.11;78.85
44531;BME280;30240;47.418;0.700;2022-08-19T06:56:48;100624.3896484375;;;20.29;78.42
44531;BME280;30240;47.418;0.700;2022-08-19T06:59:16;100628.0029296875;;;20.71;76.6
44531;BME280;30240;47.418;0.700;2022-08-19T07:01:41;100624.35913085938;;;20.33;78.16
44531;BME280;30240;47.418;0.700;2022-08-19T07:04:04;100626.23291015625;;;21.48;74.77
44531;BME280;30240;47.418;0.700;2022-08-19T07:06:28;100626.23291015625;;;21.48;74.77
44531;BME280;30240;47.418;0.700;2022-08-19T07:08:53;100623.9990234375;;;21.55;73.77
44531;BME280;30240;47.418;0.700;2022-08-19T07:11:18;100621.39892578125;;;21.1;75.65
44531;BME280;30240;47.418;0.700;2022-08-19T07:13:44;100619.06127929688;;;21.05;76.25
44531;BME280;30240;47.418;0.700;2022-08-19T07:16:11;100612.33520507812;;;22.07;72.74
44531;BME280;30240;47.418;0.700;2022-08-19T07:18:34;100612.33520507812;;;22.07;72.74
44531;BME280;30240;47.418;0.700;2022-08-19T07:21:04;100629.54711914062;;;21.69;74.63
44531;BME280;30240;47.418;0.700;2022-08-19T07:23:23;100610.44311523438;;;22.68;71.57
44531;BME280;30240;47.418;0.700;2022-08-19T07:25:48;100632.83081054688;;;21.69;74.16
44531;BME280;30240;47.418;0.700;2022-08-19T07:28:13;100622.49755859375;;;20.85;77.37
44531;BME280;30240;47.418;0.700;2022-08-19T07:30:38;100622.49755859375;;;20.85;77.37
44531;BME280;30240;47.418;0.700;2022-08-19T07:33:04;100622.29614257812;;;21.22;76.33
44531;BME280;30240;47.418;0.700;2022-08-19T07:35:29;100622.03369140625;;;21.16;76.93
44531;BME280;30240;47.418;0.700;2022-08-19T07:37:54;100631.8603515625;;;20.71;78.31
44531;BME280;30240;47.418;0.700;2022-08-19T07:40:19;100634.04541015625;;;20.88;77.99
44531;BME280;30240;47.418;0.700;2022-08-19T07:42:44;100631.87255859375;;;20.72;78.87
44531;BME280;30240;47.418;0.700;2022-08-19T07:45:09;100631.87255859375;;;20.72;78.87
44531;BME280;30240;47.418;0.700;2022-08-19T07:47:34;100638.525390625;;;20.53;79.16
44531;BME280;30240;47.418;0.700;2022-08-19T07:49:59;100633.20922851562;;;20.43;79.78
44531;BME280;30240;47.418;0.700;2022-08-19T07:52:24;100626.25122070312;;;21.92;76.05
44531;BME280;30240;47.418;0.700;2022-08-19T07:54:48;100626.27563476562;;;22.27;73.6
44531;BME280;30240;47.418;0.700;2022-08-19T07:57:13;100626.27563476562;;;22.27;73.6
44531;BME280;30240;47.418;0.700;2022-08-19T07:59:38;100619.39086914062;;;22.65;72.94
44531;BME280;30240;47.418;0.700;2022-08-19T08:02:04;100628.98559570312;;;21.93;74.48
44531;BME280;30240;47.418;0.700;2022-08-19T08:04:30;100620.95336914062;;;22.17;74.33
44531;BME280;30240;47.418;0.700;2022-08-19T08:06:54;100626.7333984375;;;23.21;70.1
44531;BME280;30240;47.418;0.700;2022-08-19T08:09:22;100626.7333984375;;;23.21;70.1
44531;BME280;30240;47.418;0.700;2022-08-19T08:11:45;100607.83081054688;;;22.28;73.68
44531;BME280;30240;47.418;0.700;2022-08-19T08:14:08;100603.28369140625;;;23.8;68.67
44531;BME280;30240;47.418;0.700;2022-08-19T08:16:35;100598.80981445312;;;24.52;67.39
44531;BME280;30240;47.418;0.700;2022-08-19T08:18:58;100601.5625;;;23.71;69.23
44531;BME280;30240;47.418;0.700;2022-08-19T08:21:23;100601.5625;;;23.71;69.23
44531;BME280;30240;47.418;0.700;2022-08-19T08:23:48;100609.45434570312;;;22.02;75.11
44531;BME280;30240;47.418;0.700;2022-08-19T08:26:13;100611.62719726562;;;22.48;73.05
44531;BME280;30240;47.418;0.700;2022-08-19T08:28:38;100627.9052734375;;;22.37;73.97
44531;BME280;30240;47.418;0.700;2022-08-19T08:31:04;100627.92358398438;;;22.31;73.51
44531;BME280;30240;47.418;0.700;2022-08-19T08:33:28;100627.92358398438;;;22.31;73.51
44531;BME280;30240;47.418;0.700;2022-08-19T08:35:53;100626.0009765625;;;22.41;73.68
44531;BME280;30240;47.418;0.700;2022-08-19T08:38:18;100628.45458984375;;;23.0;71.94
44531;BME280;30240;47.418;0.700;2022-08-19T08:40:47;100634.7900390625;;;22.31;73.28
44531;BME280;30240;47.418;0.700;2022-08-19T08:43:21;100645.263671875;;;22.1;74.43
44531;BME280;30240;47.418;0.700;2022-08-19T08:45:36;100645.263671875;;;22.1;74.43
44531;BME280;30240;47.418;0.700;2022-08-19T08:48:03;100643.29833984375;;;22.59;73.06
44531;BME280;30240;47.418;0.700;2022-08-19T08:50:28;100635.62622070312;;;22.04;75.31
44531;BME280;30240;47.418;0.700;2022-08-19T08:52:52;100635.2783203125;;;22.45;73.9
44531;BME280;30240;47.418;0.700;2022-08-19T08:55:15;100639.83764648438;;;22.87;72.43
44531;BME280;30240;47.418;0.700;2022-08-19T08:57:43;100639.83764648438;;;22.87;72.43
44531;BME280;30240;47.418;0.700;2022-08-19T09:00:06;100640.1123046875;;;22.27;74.63
44531;BME280;30240;47.418;0.700;2022-08-19T09:02:29;100647.45483398438;;;22.86;72.07
44531;BME280;30240;47.418;0.700;2022-08-19T09:04:54;100645.15380859375;;;21.86;76.23
44531;BME280;30240;47.418;0.700;2022-08-19T09:07:25;100651.72119140625;;;22.27;75.02
44531;BME280;30240;47.418;0.700;2022-08-19T09:09:47;100651.72119140625;;;22.27;75.02
44531;BME280;30240;47.418;0.700;2022-08-19T09:12:13;100654.23583984375;;;22.4;74.64
44531;BME280;30240;47.418;0.700;2022-08-19T09:14:37;100654.57763671875;;;22.75;73.74
44531;BME280;30240;47.418;0.700;2022-08-19T09:16:59;100662.29858398438;;;21.93;76.01
44531;BME280;30240;47.418;0.700;2022-08-19T09:19:23;100653.2958984375;;;22.66;74.23
44531;BME280;30240;47.418;0.700;2022-08-19T09:21:48;100656.92749023438;;;23.18;72.5
44531;BME280;30240;47.418;0.700;2022-08-19T09:24:13;100656.92749023438;;;23.18;72.5
44531;BME280;30240;47.418;0.700;2022-08-19T09:26:39;100659.35668945312;;;22.62;74.28
44531;BME280;30240;47.418;0.700;2022-08-19T09:29:03;100670.45288085938;;;22.28;75.11
44531;BME280;30240;47.418;0.700;2022-08-19T09:31:29;100656.4208984375;;;23.0;74.03
44531;BME280;30240;47.418;0.700;2022-08-19T09:33:54;100661.16943359375;;;23.56;71.33
44531;BME280;30240;47.418;0.700;2022-08-19T09:36:21;100661.16943359375;;;23.56;71.33
44531;BME280;30240;47.418;0.700;2022-08-19T09:38:44;100660.85815429688;;;23.25;71.29
44531;BME280;30240;47.418;0.700;2022-08-19T09:41:11;100655.859375;;;23.25;72.09
44531;BME280;30240;47.418;0.700;2022-08-19T09:43:34;100656.52465820312;;;22.9;72.96
44531;BME280;30240;47.418;0.700;2022-08-19T09:45:59;100665.56396484375;;;22.45;74.65
44531;BME280;30240;47.418;0.700;2022-08-19T09:48:24;100665.56396484375;;;22.45;74.65
44531;BME280;30240;47.418;0.700;2022-08-19T09:50:49;100667.822265625;;;22.68;73.65
44531;BME280;30240;47.418;0.700;2022-08-19T09:53:14;100664.67895507812;;;22.58;74.33
44531;BME280;30240;47.418;0.700;2022-08-19T09:55:41;100667.05322265625;;;22.24;75.62
44531;BME280;30240;47.418;0.700;2022-08-19T09:58:04;100661.9384765625;;;22.63;74.16
44531;BME280;30240;47.418;0.700;2022-08-19T10:00:29;100661.9384765625;;;22.63;74.16
44531;BME280;30240;47.418;0.700;2022-08-19T10:02:53;100660.49194335938;;;22.61;74.51
44531;BME280;30240;47.418;0.700;2022-08-19T10:05:18;100672.28393554688;;;22.54;73.9
44531;BME280;30240;47.418;0.700;2022-08-19T10:07:44;100662.20092773438;;;22.73;74.41
44531;BME280;30240;47.418;0.700;2022-08-19T10:10:09;100662.53662109375;;;22.02;76.16
44531;BME280;30240;47.418;0.700;2022-08-19T10:12:34;100662.53662109375;;;22.02;76.16
44531;BME280;30240;47.418;0.700;2022-08-19T10:14:59;100673.90747070312;;;22.0;76.52
44531;BME280;30240;47.418;0.700;2022-08-19T10:17:23;100682.91625976562;;;22.25;75.62
44531;BME280;30240;47.418;0.700;2022-08-19T10:19:49;100671.32568359375;;;21.9;76.84
44531;BME280;30240;47.418;0.700;2022-08-19T10:22:14;100673.13842773438;;;22.79;74.54
44531;BME280;30240;47.418;0.700;2022-08-19T10:24:39;100673.13842773438;;;22.79;74.54
44531;BME280;30240;47.418;0.700;2022-08-19T10:27:04;100671.923828125;;;23.0;73.43
44531;BME280;30240;47.418;0.700;2022-08-19T10:29:29;100680.1025390625;;;22.63;74.48
44531;BME280;30240;47.418;0.700;2022-08-19T10:31:53;100689.453125;;;22.68;73.65
44531;BME280;30240;47.418;0.700;2022-08-19T10:34:18;100675.97045898438;;;22.93;73.8
44531;BME280;30240;47.418;0.700;2022-08-19T10:36:43;100675.97045898438;;;22.93;73.8
44531;BME280;30240;47.418;0.700;2022-08-19T10:39:09;100664.53247070312;;;23.67;72.42
44531;BME280;30240;47.418;0.700;2022-08-19T10:41:37;100661.34643554688;;;24.18;70.04
44531;BME280;30240;47.418;0.700;2022-08-19T10:44:01;100657.52563476562;;;24.57;69.31
44531;BME280;30240;47.418;0.700;2022-08-19T10:46:26;100653.6865234375;;;23.65;71.43
44531;BME280;30240;47.418;0.700;2022-08-19T10:48:49;100652.31323242188;;;23.81;69.94
44531;BME280;30240;47.418;0.700;2022-08-19T10:51:13;100652.31323242188;;;23.81;69.94
44531;BME280;30240;47.418;0.700;2022-08-19T10:53:38;100643.64013671875;;;25.28;67.3
44531;BME280;30240;47.418;0.700;2022-08-19T10:56:04;100645.01342773438;;;24.87;68.14
44531;BME280;30240;47.418;0.700;2022-08-19T10:58:29;100642.7001953125;;;25.57;65.59
44531;BME280;30240;47.418;0.700;2022-08-19T11:00:58;100644.72045898438;;;26.3;63.64
44531;BME280;30240;47.418;0.700;2022-08-19T11:03:19;100644.72045898438;;;26.3;63.64
44531;BME280;30240;47.418;0.700;2022-08-19T11:05:44;100655.43823242188;;;24.99;66.85
44531;BME280;30240;47.418;0.700;2022-08-19T11:08:09;100657.6416015625;;;24.1;70.43
44531;BME280;30240;47.418;0.700;2022-08-19T11:10:33;100657.31201171875;;;24.07;70.37
44531;BME280;30240;47.418;0.700;2022-08-19T11:12:58;100652.16674804688;;;25.82;64.77
44531;BME280;30240;47.418;0.700;2022-08-19T11:15:23;100652.16674804688;;;25.82;64.77
44531;BME280;30240;47.418;0.700;2022-08-19T11:17:48;100645.73364257812;;;25.23;65.93
44531;BME280;30240;47.418;0.700;2022-08-19T11:20:14;100659.18579101562;;;24.6;67.76
44531;BME280;30240;47.418;0.700;2022-08-19T11:22:38;100657.65380859375;;;24.42;69.29